»·PEaware :: DAL821 KSLC-KSAN

DAL821 :: KSLC-KSAN

FLIGHT INFORMATION

Flight Status: Arrived
Operator:
Delta Air Lines
More flights by this operator :: More flights under this callsign
Pilot: Andre N. (13929)
Aircraft: BOEING 737-800
(B738)
More flights by this aircraft type
Origin: KSLC Salt Lake City Intl
United States
Destination: KSAN San Diego Intl-Lindbergh
United States
More flights between these airports :: More routes between these airports
Route: +WEVIC6 EHK LAKRR Q73 LVELL LUCKI1
File this flight plan on PilotEdge
Remarks:
Altitude:
(Current/Filed)
38,000ft
Speed:
(Current/Filed)
450kts
Departed: 02-Apr-18 12:04 PM
Arrived: 02-Apr-18 01:35 PM
Distance/Time
Traveled:
544nm/1:31
Distance/Time
To Go:
Arrived

Flight Plot

Page will automatically refresh every two minutes.

Flight plan parsing failed; only flown route is shown


Map Options




Map Legend


Flown Route
Filed Route
Departure Airport
Arrival Airport
Navaid (VOR, NDB)
Fix

Horizontal Profiles

Position Reports

Time Latitude Longitude Heading Altitude Ground
Speed
02-Apr-18 11:33 40.789047 -111.985605 122 4235ft 0kts
02-Apr-18 11:34 40.789047 -111.985605 122 4235ft 0kts
02-Apr-18 11:35 40.789047 -111.985605 122 4235ft 0kts
02-Apr-18 11:36 40.789047 -111.985605 122 4235ft 0kts
02-Apr-18 11:37 40.789047 -111.985605 122 4235ft 0kts
02-Apr-18 11:38 40.789047 -111.985605 122 4235ft 0kts
02-Apr-18 11:39 40.789047 -111.985605 122 4235ft 0kts
02-Apr-18 11:40 40.789047 -111.985605 122 4235ft 0kts
02-Apr-18 11:41 40.789047 -111.985605 122 4235ft 0kts
02-Apr-18 11:42 40.789047 -111.985605 122 4235ft 0kts
02-Apr-18 11:43 40.789047 -111.985605 122 4235ft 0kts
02-Apr-18 11:44 40.789047 -111.985605 122 4235ft 0kts
02-Apr-18 11:45 40.789047 -111.985605 122 4235ft 0kts
02-Apr-18 11:46 40.789047 -111.985605 122 4235ft 0kts
02-Apr-18 11:47 40.789047 -111.985605 122 4235ft 0kts
02-Apr-18 11:48 40.789047 -111.985605 122 4235ft 0kts
02-Apr-18 11:49 40.789133 -111.985777 120 4235ft 2kts
02-Apr-18 11:50 40.789234 -111.986531 80 4235ft 2kts
02-Apr-18 11:51 40.788984 -111.987154 39 4235ft 2kts
02-Apr-18 11:52 40.788500 -111.987349 354 4235ft 1kts
02-Apr-18 11:53 40.788493 -111.987348 354 4235ft 0kts
02-Apr-18 11:54 40.788493 -111.987348 354 4235ft 0kts
02-Apr-18 11:55 40.788493 -111.987348 354 4235ft 0kts
02-Apr-18 11:56 40.788539 -111.987353 354 4235ft 3kts
02-Apr-18 11:57 40.791545 -111.985744 85 4235ft 20kts
02-Apr-18 11:58 40.792166 -111.977613 57 4235ft 14kts
02-Apr-18 11:59 40.796764 -111.977876 354 4235ft 25kts
02-Apr-18 12:00 40.805036 -111.978828 354 4235ft 29kts
02-Apr-18 12:01 40.807263 -111.978748 50 4235ft 0kts
02-Apr-18 12:02 40.807263 -111.978748 50 4235ft 0kts
02-Apr-18 12:03 40.804837 -111.976657 176 4235ft 59kts
02-Apr-18 12:04 40.763989 -111.971502 182 5586ft 188kts
02-Apr-18 12:05 40.708310 -111.967895 182 7986ft 235kts
02-Apr-18 12:06 40.635071 -111.963385 181 10020ft 294kts
02-Apr-18 12:07 40.554844 -111.958170 179 11312ft 293kts
02-Apr-18 12:08 40.472070 -111.952691 185 14031ft 319kts
02-Apr-18 12:09 40.385702 -111.946821 185 15249ft 314kts
02-Apr-18 12:10 40.293792 -111.940739 185 17318ft 356kts
02-Apr-18 12:11 40.195708 -111.949321 195 19324ft 364kts
02-Apr-18 12:12 40.097594 -111.964121 195 21851ft 366kts
02-Apr-18 12:13 39.995944 -111.979290 194 24034ft 377kts
02-Apr-18 12:14 39.891981 -111.994662 194 25963ft 388kts
02-Apr-18 12:15 39.788011 -112.009939 194 27669ft 397kts
02-Apr-18 12:16 39.677862 -112.026047 194 29235ft 407kts
02-Apr-18 12:17 39.566126 -112.042312 194 30645ft 416kts
02-Apr-18 12:18 39.451187 -112.058959 193 31982ft 424kts
02-Apr-18 12:19 39.335511 -112.075386 193 33599ft 420kts
02-Apr-18 12:20 39.221909 -112.091381 195 35152ft 413kts
02-Apr-18 12:21 39.111844 -112.118044 215 36334ft 390kts
02-Apr-18 12:22 39.018430 -112.186472 217 37362ft 388kts
02-Apr-18 12:23 38.924302 -112.255705 217 37758ft 402kts
02-Apr-18 12:24 38.829887 -112.324551 217 37747ft 405kts
02-Apr-18 12:25 38.739663 -112.390011 216 37746ft 405kts
02-Apr-18 12:26 38.641988 -112.460619 216 37744ft 405kts
02-Apr-18 12:27 38.544820 -112.530621 216 37743ft 405kts
02-Apr-18 12:28 38.447264 -112.600674 216 37742ft 405kts
02-Apr-18 12:29 38.353310 -112.667913 216 37760ft 406kts
02-Apr-18 12:30 38.256064 -112.737127 216 37754ft 406kts
02-Apr-18 12:31 38.158653 -112.806269 216 37737ft 410kts
02-Apr-18 12:32 38.056427 -112.878779 217 37760ft 435kts
02-Apr-18 12:33 37.950128 -112.953862 217 37842ft 444kts
02-Apr-18 12:34 37.846764 -113.026549 217 37830ft 443kts
02-Apr-18 12:35 37.745771 -113.098283 218 37830ft 444kts
02-Apr-18 12:36 37.639047 -113.176227 217 37828ft 446kts
02-Apr-18 12:37 37.532605 -113.252902 217 37829ft 446kts
02-Apr-18 12:38 37.425850 -113.329212 217 37829ft 447kts
02-Apr-18 12:39 37.318855 -113.405541 217 37825ft 448kts
02-Apr-18 12:40 37.211218 -113.482331 217 37776ft 450kts
02-Apr-18 12:41 37.104373 -113.558583 217 37776ft 452kts
02-Apr-18 12:42 36.997595 -113.634791 217 37776ft 452kts
02-Apr-18 12:43 36.895510 -113.707709 216 37786ft 454kts
02-Apr-18 12:44 36.795319 -113.779276 216 37777ft 454kts
02-Apr-18 12:45 36.685947 -113.857453 216 37777ft 456kts
02-Apr-18 12:46 36.577056 -113.935304 216 37778ft 457kts
02-Apr-18 12:47 36.467453 -114.013681 216 37778ft 457kts
02-Apr-18 12:48 36.357412 -114.092628 211 37784ft 474kts
02-Apr-18 12:49 36.244043 -114.173527 214 37781ft 473kts
02-Apr-18 12:50 36.132553 -114.253263 214 37754ft 468kts
02-Apr-18 12:51 36.035985 -114.353019 233 37746ft 457kts
02-Apr-18 12:52 35.951829 -114.469737 233 37753ft 457kts
02-Apr-18 12:53 35.869810 -114.583358 233 37744ft 457kts
02-Apr-18 12:54 35.796422 -114.684837 232 37750ft 458kts
02-Apr-18 12:55 35.712079 -114.801299 233 37749ft 458kts
02-Apr-18 12:56 35.632363 -114.910955 232 37750ft 458kts
02-Apr-18 12:57 35.546868 -115.027876 230 37754ft 469kts
02-Apr-18 12:58 35.439027 -115.112549 201 37753ft 476kts
02-Apr-18 12:59 35.313569 -115.162396 201 37734ft 485kts
02-Apr-18 13:00 35.186839 -115.214101 201 37726ft 487kts
02-Apr-18 13:01 35.060228 -115.266052 201 37727ft 487kts
02-Apr-18 13:02 34.933511 -115.318128 201 37755ft 487kts
02-Apr-18 13:03 34.814811 -115.366940 201 37746ft 487kts
02-Apr-18 13:04 34.688715 -115.418808 201 37747ft 487kts
02-Apr-18 13:05 34.561578 -115.471106 201 37749ft 487kts
02-Apr-18 13:06 34.434727 -115.523283 202 37750ft 487kts
02-Apr-18 13:07 34.308965 -115.575085 200 37860ft 486kts
02-Apr-18 13:08 34.182744 -115.628060 203 37857ft 489kts
02-Apr-18 13:09 34.068462 -115.681830 204 36628ft 484kts
02-Apr-18 13:10 33.975132 -115.725802 203 34778ft 478kts
02-Apr-18 13:11 33.882526 -115.769837 204 32959ft 482kts
02-Apr-18 13:12 33.801762 -115.809428 204 31342ft 483kts
02-Apr-18 13:13 33.686311 -115.864451 203 29051ft 487kts
02-Apr-18 13:14 33.564854 -115.921234 202 26583ft 470kts
02-Apr-18 13:15 33.470100 -116.015830 238 24173ft 463kts
02-Apr-18 13:16 33.402633 -116.134600 238 21689ft 424kts
02-Apr-18 13:17 33.339971 -116.240498 228 19335ft 376kts
02-Apr-18 13:18 33.252460 -116.300154 207 17458ft 362kts
02-Apr-18 13:19 33.164715 -116.351500 208 15585ft 353kts
02-Apr-18 13:20 33.078839 -116.401589 209 13898ft 345kts
02-Apr-18 13:21 32.997454 -116.450635 221 12151ft 302kts
02-Apr-18 13:22 32.938699 -116.509774 221 10827ft 269kts
02-Apr-18 13:23 32.884207 -116.565144 220 9840ft 269kts
02-Apr-18 13:24 32.828288 -116.621710 220 8944ft 261kts
02-Apr-18 13:25 32.775965 -116.674528 220 8126ft 249kts
02-Apr-18 13:26 32.740905 -116.742710 241 7153ft 244kts
02-Apr-18 13:27 32.709145 -116.811236 240 6045ft 237kts
02-Apr-18 13:28 32.685766 -116.882102 252 4991ft 232kts
02-Apr-18 13:29 32.670515 -116.948415 284 4826ft 192kts
02-Apr-18 13:30 32.687415 -117.006909 286 3851ft 196kts
02-Apr-18 13:31 32.702901 -117.068564 283 2290ft 200kts
02-Apr-18 13:32 32.718795 -117.127636 278 1146ft 172kts
02-Apr-18 13:33 32.730316 -117.176123 281 126ft 142kts
02-Apr-18 13:34 32.735025 -117.198546 249 25ft 8kts
02-Apr-18 13:35 32.735009 -117.198595 250 25ft 0kts
02-Apr-18 13:36 32.735255 -117.200987 286 25ft 17kts
02-Apr-18 13:37 32.735046 -117.205187 226 25ft 10kts
02-Apr-18 13:38 32.732605 -117.205408 169 25ft 0kts
02-Apr-18 13:39 32.732606 -117.205408 169 25ft 0kts
02-Apr-18 13:40 32.732606 -117.205408 169 25ft 0kts
02-Apr-18 13:41 32.732606 -117.205408 169 25ft 0kts
02-Apr-18 13:42 32.732606 -117.205408 169 25ft 0kts

Navigation Log

Ident Type
Flight plan parsing failed, navigation log unavailable